Wommelgem, Belgium
Current Conditions -  °F | °C
As of 5:50 AM on Saturday 29 Nov 2014 (Local Time) from EBAW Reporting Station
Clear Clear  
Wind Chill: 32°   Ceiling: Unl
Heat Index: 37°   Visibility: 3mi
Dew Point: 34°   Wind: 7mph
Humidity: 87%   Direction: 90°E
Pressure: 29.85"   Gusts: NA
Location:  51.2°N, 4.52°E
Report Text: EBAW 290450Z AUTO 09006KT 5000 NCD 03/01 Q1011
Loading
Personal Weather Stations






























Interactive Weather Map New forecast layout! Learn more

10-Day Weather Forecast

Advertisements
Track Severe Weather on mobile